Time;durP1;ratioP1;P1;durP2;ratioP2;P2;SDS_P1;SDS_P2;PMS_P1;PMS_P2;Temp;Humidity;BMP_temperature;BMP_pressure;BME280_temperature;BME280_humidity;BME280_pressure;Samples;Min_cycle;Max_cycle;Signal;HPM_P1;HPM_P2
2023/01/25 00:01:33;;;;;;;7.75;4.10;;;;;;;;;;4398121;32;71120;-63
2023/01/25 00:04:20;;;;;;;8.20;4.15;;;;;;;;;;4387710;32;68238;-63
2023/01/25 00:07:07;;;;;;;7.78;4.03;;;;;;;;;;4398497;32;67620;-64
2023/01/25 00:09:53;;;;;;;6.65;3.70;;;;;;;;;;4398595;32;71751;-63
2023/01/25 00:12:40;;;;;;;7.07;4.00;;;;;;;;;;4410734;32;65703;-62
2023/01/25 00:15:26;;;;;;;6.43;4.22;;;;;;;;;;4398481;32;68237;-64
2023/01/25 00:18:13;;;;;;;5.55;3.33;;;;;;;;;;4398384;32;67880;-63
2023/01/25 00:21:10;;;;;;;6.93;3.80;;;;;;;;;;4387045;32;72673;-63
2023/01/25 00:23:57;;;;;;;6.15;3.45;;;;;;;;;;4410091;32;65985;-63
2023/01/25 00:26:43;;;;;;;;;;;;;;;;;;4387685;32;67271;-64
2023/01/25 00:29:30;;;;;;;6.45;3.62;;;;;;;;;;4398894;32;58710;-64
2023/01/25 00:32:16;;;;;;;6.55;4.03;;;;;;;;;;4410467;32;70244;-63
2023/01/25 00:35:02;;;;;;;6.37;3.72;;;;;;;;;;4393268;32;70079;-63
2023/01/25 00:37:53;;;;;;;5.82;3.95;;;;;;;;;;4387870;32;68372;-62
2023/01/25 00:40:39;;;;;;;5.00;3.60;;;;;;;;;;4401845;32;60439;-62
2023/01/25 00:43:26;;;;;;;7.20;3.78;;;;;;;;;;4377451;32;70995;-63
2023/01/25 00:46:16;;;;;;;6.45;3.37;;;;;;;;;;4387992;32;68419;-62
2023/01/25 00:49:03;;;;;;;6.95;3.67;;;;;;;;;;4398662;32;66619;-64
2023/01/25 00:51:50;;;;;;;8.13;4.07;;;;;;;;;;4398366;32;70607;-64
2023/01/25 00:54:38;;;;;;;6.53;3.90;;;;;;;;;;4376542;32;65951;-64
2023/01/25 00:57:24;;;;;;;;;;;;;;;;;;4387703;32;67298;-63
2023/01/25 01:00:11;;;;;;;6.40;3.67;;;;;;;;;;4376826;32;60279;-64
2023/01/25 01:02:58;;;;;;;6.15;3.80;;;;;;;;;;4376399;32;70984;-64
2023/01/25 01:05:45;;;;;;;7.47;3.78;;;;;;;;;;4387799;32;65994;-63
2023/01/25 01:08:35;;;;;;;7.10;3.42;;;;;;;;;;4387217;32;67975;-63
2023/01/25 01:11:22;;;;;;;6.25;3.75;;;;;;;;;;4377389;32;59088;-63
2023/01/25 01:14:10;;;;;;;6.45;3.85;;;;;;;;;;4398240;32;70476;-63
2023/01/25 01:16:56;;;;;;;;;;;;;;;;;;4387943;32;68239;-62
2023/01/25 01:19:43;;;;;;;6.28;3.72;;;;;;;;;;4398680;32;67750;-65
2023/01/25 01:22:29;;;;;;;5.55;3.37;;;;;;;;;;4376882;32;70940;-63
2023/01/25 01:25:16;;;;;;;6.07;3.83;;;;;;;;;;4397609;32;65540;-64
2023/01/25 01:28:02;;;;;;;5.75;3.00;;;;;;;;;;4387379;32;68345;-63
2023/01/25 01:30:49;;;;;;;6.12;4.07;;;;;;;;;;4365620;32;68057;-63
2023/01/25 01:33:36;;;;;;;5.35;3.60;;;;;;;;;;4386861;32;72682;-64
2023/01/25 01:36:25;;;;;;;6.50;4.03;;;;;;;;;;4387767;32;64829;-63
2023/01/25 01:39:13;;;;;;;5.22;3.20;;;;;;;;;;4387009;32;68065;-62
2023/01/25 01:41:59;;;;;;;7.20;3.85;;;;;;;;;;4387748;32;59168;-63
2023/01/25 01:44:52;;;;;;;5.30;3.28;;;;;;;;;;4376314;32;70034;-63
2023/01/25 01:47:44;;;;;;;7.55;3.80;;;;;;;;;;4397713;32;69319;-63
2023/01/25 01:50:32;;;;;;;8.80;4.60;;;;;;;;;;4387988;32;67735;-62
2023/01/25 01:53:18;;;;;;;;;;;;;;;;;;4387134;32;60694;-62
2023/01/25 01:56:09;;;;;;;5.87;3.87;;;;;;;;;;4398625;32;70271;-62
2023/01/25 01:58:56;;;;;;;5.93;3.30;;;;;;;;;;4386755;32;68982;-64
2023/01/25 02:01:44;;;;;;;8.02;3.78;;;;;;;;;;4387528;32;66750;-63
2023/01/25 02:04:30;;;;;;;6.18;3.50;;;;;;;;;;4386450;32;72317;-63
2023/01/25 02:07:29;;;;;;;5.65;3.90;;;;;;;;;;4386662;32;66885;-63
2023/01/25 02:10:17;;;;;;;6.20;3.90;;;;;;;;;;4376185;32;68634;-65
2023/01/25 02:13:04;;;;;;;6.35;3.90;;;;;;;;;;4376033;32;60591;-63
2023/01/25 02:15:52;;;;;;;7.12;3.62;;;;;;;;;;4375438;32;71506;-64
2023/01/25 02:18:39;;;;;;;6.45;4.18;;;;;;;;;;4376520;32;66132;-64
2023/01/25 02:21:25;;;;;;;6.47;3.95;;;;;;;;;;4376291;32;66782;-63
2023/01/25 02:24:27;;;;;;;5.97;3.85;;;;;;;;;;4386720;32;60484;-64
2023/01/25 02:27:14;;;;;;;7.05;3.65;;;;;;;;;;4376577;32;70453;-63
2023/01/25 02:30:01;;;;;;;7.12;4.15;;;;;;;;;;4397391;32;69596;-64
2023/01/25 02:32:48;;;;;;;7.50;3.58;;;;;;;;;;4386271;32;66524;-64
2023/01/25 02:35:42;;;;;;;5.72;3.95;;;;;;;;;;4386653;32;71933;-63
2023/01/25 02:38:30;;;;;;;5.10;3.47;;;;;;;;;;4396968;32;67000;-64
2023/01/25 02:41:32;;;;;;;6.22;3.72;;;;;;;;;;4399135;32;67549;-65
2023/01/25 02:44:25;;;;;;;5.65;3.35;;;;;;;;;;4386862;32;66606;-64
2023/01/25 02:47:12;;;;;;;5.85;3.85;;;;;;;;;;4397451;32;72139;-65
2023/01/25 02:49:59;;;;;;;6.00;3.65;;;;;;;;;;4375049;32;66426;-64
2023/01/25 02:52:45;;;;;;;6.78;3.60;;;;;;;;;;4375984;32;67885;-63
2023/01/25 02:55:32;;;;;;;5.85;3.85;;;;;;;;;;4386135;32;59887;-64
2023/01/25 02:58:19;;;;;;;7.18;3.60;;;;;;;;;;4396943;32;70619;-64
2023/01/25 03:01:05;;;;;;;5.75;3.67;;;;;;;;;;4397173;32;68374;-63
2023/01/25 03:03:52;;;;;;;5.85;3.55;;;;;;;;;;4396948;32;67769;-63
2023/01/25 03:06:40;;;;;;;5.47;3.60;;;;;;;;;;4365156;32;71190;-63
2023/01/25 03:09:26;;;;;;;7.20;3.90;;;;;;;;;;4386324;32;69801;-66
2023/01/25 03:12:14;;;;;;;5.57;3.58;;;;;;;;;;4398151;32;68464;-63
2023/01/25 03:15:02;;;;;;;7.28;4.05;;;;;;;;;;4397032;32;67583;-64
2023/01/25 03:17:49;;;;;;;6.95;3.92;;;;;;;;;;4398071;32;70765;-64
2023/01/25 03:20:36;;;;;;;;;;;;;;;;;;4397245;32;64935;-63
2023/01/25 03:23:23;;;;;;;1.73;1.40;;;;;;;;;;4396582;32;66835;-62
2023/01/25 03:26:13;;;;;;;1.10;0.70;;;;;;;;;;4386242;32;59014;-64
2023/01/25 03:29:02;;;;;;;3.92;2.00;;;;;;;;;;4396945;32;70468;-64
2023/01/25 03:31:48;;;;;;;6.97;4.20;;;;;;;;;;4396258;32;68966;-63
2023/01/25 03:34:35;;;;;;;6.53;3.80;;;;;;;;;;4396645;32;67619;-63
2023/01/25 03:37:22;;;;;;;6.53;3.65;;;;;;;;;;4364778;32;59670;-63
2023/01/25 03:40:10;;;;;;;2.08;1.15;;;;;;;;;;4386237;32;70731;-63
2023/01/25 03:42:57;;;;;;;2.75;1.50;;;;;;;;;;4386011;32;69709;-63
2023/01/25 03:45:45;;;;;;;0.93;0.85;;;;;;;;;;4397847;32;67885;-64
2023/01/25 03:48:32;;;;;;;0.40;0.40;;;;;;;;;;4375390;32;70765;-63
2023/01/25 03:51:19;;;;;;;7.28;3.47;;;;;;;;;;4386011;32;65802;-63
2023/01/25 03:54:07;;;;;;;5.37;3.03;;;;;;;;;;4396832;32;67136;-63
2023/01/25 03:56:54;;;;;;;6.50;3.40;;;;;;;;;;4396289;32;59257;-64
2023/01/25 03:59:40;;;;;;;6.32;3.17;;;;;;;;;;4396366;32;71689;-64
2023/01/25 04:02:27;;;;;;;4.45;3.33;;;;;;;;;;4396139;32;66704;-64
2023/01/25 04:05:14;;;;;;;5.30;2.97;;;;;;;;;;4385793;32;67843;-64
2023/01/25 04:08:01;;;;;;;6.72;3.58;;;;;;;;;;4396614;32;59270;-63
2023/01/25 04:10:52;;;;;;;6.03;3.45;;;;;;;;;;4398968;32;70381;-63
2023/01/25 04:13:40;;;;;;;5.70;3.40;;;;;;;;;;4377317;32;70027;-64
2023/01/25 04:16:29;;;;;;;6.22;3.78;;;;;;;;;;4398356;32;68022;-63
2023/01/25 04:19:16;;;;;;;6.82;3.70;;;;;;;;;;4398920;32;71520;-64
2023/01/25 04:22:03;;;;;;;8.00;3.70;;;;;;;;;;4399248;32;70359;-65
2023/01/25 04:24:51;;;;;;;5.97;3.83;;;;;;;;;;4398322;32;69270;-63
2023/01/25 04:27:38;;;;;;;6.87;3.92;;;;;;;;;;4398795;32;66742;-63
2023/01/25 04:30:24;;;;;;;6.65;3.70;;;;;;;;;;4377369;32;71764;-63
2023/01/25 04:33:12;;;;;;;4.47;2.78;;;;;;;;;;4388232;32;65838;-65
2023/01/25 04:35:58;;;;;;;6.68;3.30;;;;;;;;;;4387741;32;68525;-63
2023/01/25 04:38:45;;;;;;;;;;;;;;;;;;4388827;32;60466;-63
2023/01/25 04:41:31;;;;;;;4.82;3.03;;;;;;;;;;4376330;32;70706;-63
2023/01/25 04:44:19;;;;;;;5.50;3.00;;;;;;;;;;4398632;32;69356;-63
2023/01/25 04:47:05;;;;;;;8.15;3.87;;;;;;;;;;4400229;32;68116;-62
2023/01/25 04:49:52;;;;;;;7.28;3.37;;;;;;;;;;4398374;32;60929;-64
2023/01/25 04:52:39;;;;;;;;;;;;;;;;;;4398877;32;70768;-62
2023/01/25 04:55:26;;;;;;;4.33;3.03;;;;;;;;;;4398702;32;69547;-64
2023/01/25 04:58:13;;;;;;;6.25;4.00;;;;;;;;;;4399637;32;66706;-64
2023/01/25 05:01:02;;;;;;;;;;;;;;;;;;4376490;32;72310;-63
2023/01/25 05:03:48;;;;;;;8.93;4.10;;;;;;;;;;4398606;32;66166;-62
2023/01/25 05:06:36;;;;;;;6.12;3.75;;;;;;;;;;4398312;32;66999;-64
2023/01/25 05:09:22;;;;;;;5.68;3.72;;;;;;;;;;4387053;32;60870;-65
2023/01/25 05:12:12;;;;;;;7.35;4.03;;;;;;;;;;4386841;32;72757;-65
2023/01/25 05:15:01;;;;;;;7.25;3.83;;;;;;;;;;4397456;32;66212;-63
2023/01/25 05:17:48;;;;;;;6.87;4.00;;;;;;;;;;4398459;32;67799;-63
2023/01/25 05:20:35;;;;;;;5.62;3.45;;;;;;;;;;4400034;32;59190;-65
2023/01/25 05:23:22;;;;;;;5.32;3.50;;;;;;;;;;4398961;32;69705;-64
2023/01/25 05:29:15;;;;;;;8.23;3.65;;;;;;;;;;4377803;32;67420;-63
2023/01/25 05:32:02;;;;;;;;;;;;;;;;;;4398422;32;71575;-63
2023/01/25 05:34:49;;;;;;;6.53;3.55;;;;;;;;;;4376341;32;65574;-64
2023/01/25 05:37:35;;;;;;;7.07;3.78;;;;;;;;;;4375806;32;70054;-63
2023/01/25 05:40:23;;;;;;;5.47;3.33;;;;;;;;;;4397863;32;66777;-63
2023/01/25 05:43:10;;;;;;;6.50;4.20;;;;;;;;;;4399023;32;71890;-63
2023/01/25 05:45:59;;;;;;;9.00;4.90;;;;;;;;;;4387333;32;65024;-63
2023/01/25 05:48:47;;;;;;;7.60;3.60;;;;;;;;;;4387110;32;68095;-63
2023/01/25 05:51:37;;;;;;;6.10;3.72;;;;;;;;;;4376583;32;60550;-63
2023/01/25 05:54:24;;;;;;;7.05;3.70;;;;;;;;;;4376552;32;70344;-62
2023/01/25 05:57:14;;;;;;;6.53;3.97;;;;;;;;;;4399033;32;69394;-62
2023/01/25 06:00:00;;;;;;;6.30;4.00;;;;;;;;;;4386603;32;67830;-65
2023/01/25 06:02:48;;;;;;;7.43;3.70;;;;;;;;;;4397814;32;60021;-63
2023/01/25 06:05:34;;;;;;;6.47;3.70;;;;;;;;;;4396737;32;71019;-65
2023/01/25 06:08:21;;;;;;;6.32;3.70;;;;;;;;;;4375197;32;68196;-63
2023/01/25 06:11:09;;;;;;;6.32;3.83;;;;;;;;;;4375521;32;64983;-63
2023/01/25 06:13:57;;;;;;;6.45;3.65;;;;;;;;;;4386940;32;71862;-63
2023/01/25 06:16:45;;;;;;;5.90;3.85;;;;;;;;;;4385933;32;66917;-63
2023/01/25 06:19:34;;;;;;;6.28;3.80;;;;;;;;;;4398535;32;67555;-63
2023/01/25 06:22:21;;;;;;;7.35;3.60;;;;;;;;;;4386951;32;60068;-62
2023/01/25 06:25:08;;;;;;;7.15;3.92;;;;;;;;;;4386559;32;70644;-63
2023/01/25 06:27:55;;;;;;;5.68;3.70;;;;;;;;;;4398348;32;65761;-63
2023/01/25 06:30:42;;;;;;;6.10;3.47;;;;;;;;;;4397448;32;67828;-63
2023/01/25 06:33:29;;;;;;;6.65;3.70;;;;;;;;;;4397070;32;59136;-64
2023/01/25 06:36:17;;;;;;;6.10;3.70;;;;;;;;;;4385699;32;70832;-63
2023/01/25 06:39:05;;;;;;;6.03;3.90;;;;;;;;;;4375923;32;70042;-63
2023/01/25 06:41:52;;;;;;;6.40;3.72;;;;;;;;;;4397065;32;67655;-62
2023/01/25 06:44:38;;;;;;;5.35;3.60;;;;;;;;;;4386252;32;70787;-62
2023/01/25 06:47:25;;;;;;;7.07;3.47;;;;;;;;;;4385785;32;65014;-62
2023/01/25 06:50:12;;;;;;;5.87;3.62;;;;;;;;;;4397012;32;69284;-62
2023/01/25 06:52:59;;;;;;;5.87;3.45;;;;;;;;;;4385519;32;68691;-63
2023/01/25 06:55:45;;;;;;;6.57;4.22;;;;;;;;;;4396848;32;71592;-63
2023/01/25 06:58:32;;;;;;;5.43;3.47;;;;;;;;;;4375246;32;67098;-62
2023/01/25 07:01:25;;;;;;;6.87;3.83;;;;;;;;;;4396557;32;66295;-65
2023/01/25 07:04:13;;;;;;;8.77;3.92;;;;;;;;;;4375522;32;57930;-62
2023/01/25 07:07:00;;;;;;;7.87;3.92;;;;;;;;;;4374661;32;71672;-64
2023/01/25 07:09:46;;;;;;;8.00;3.60;;;;;;;;;;4396714;32;68658;-63
2023/01/25 07:12:33;;;;;;;6.20;3.50;;;;;;;;;;4386178;32;66797;-62
2023/01/25 07:15:19;;;;;;;5.10;3.55;;;;;;;;;;4385891;32;60825;-63
2023/01/25 07:18:06;;;;;;;5.87;3.17;;;;;;;;;;4397928;32;69554;-63
2023/01/25 07:20:52;;;;;;;5.50;3.15;;;;;;;;;;4386064;32;69330;-63
2023/01/25 07:23:40;;;;;;;5.40;3.60;;;;;;;;;;4385733;32;67528;-63
2023/01/25 07:26:26;;;;;;;6.50;4.45;;;;;;;;;;4375167;32;72006;-63
2023/01/25 07:29:14;;;;;;;;;;;;;;;;;;4364706;32;65053;-62
2023/01/25 07:32:00;;;;;;;8.32;4.60;;;;;;;;;;4396778;32;68284;-63
2023/01/25 07:34:47;;;;;;;9.38;5.12;;;;;;;;;;4396932;32;59512;-63
2023/01/25 07:37:34;;;;;;;7.65;4.37;;;;;;;;;;4395904;32;70340;-63
2023/01/25 07:40:24;;;;;;;8.45;4.70;;;;;;;;;;4375402;32;65995;-63
2023/01/25 07:43:10;;;;;;;6.87;4.50;;;;;;;;;;4385119;32;67828;-63
2023/01/25 07:46:06;;;;;;;8.95;4.95;;;;;;;;;;4398271;32;60205;-63
2023/01/25 07:48:53;;;;;;;9.05;5.25;;;;;;;;;;4399048;32;70701;-62
2023/01/25 07:51:40;;;;;;;5.97;3.75;;;;;;;;;;4399288;32;69081;-62
2023/01/25 07:54:26;;;;;;;7.82;4.05;;;;;;;;;;4366699;32;68298;-64
2023/01/25 07:57:13;;;;;;;6.32;4.18;;;;;;;;;;4388197;32;70808;-63
2023/01/25 08:00:00;;;;;;;7.75;4.65;;;;;;;;;;4377018;32;66515;-63
2023/01/25 08:02:51;;;;;;;7.43;4.50;;;;;;;;;;4378294;32;68095;-63
2023/01/25 08:05:44;;;;;;;9.88;5.00;;;;;;;;;;4387688;32;65563;-63
2023/01/25 08:08:33;;;;;;;7.43;5.05;;;;;;;;;;4376591;32;71917;-63
2023/01/25 08:11:23;;;;;;;9.00;5.25;;;;;;;;;;4398849;32;66143;-64
2023/01/25 08:14:10;;;;;;;8.95;5.50;;;;;;;;;;4387990;32;67976;-62
2023/01/25 08:16:56;;;;;;;9.07;5.82;;;;;;;;;;4388404;32;59027;-63
2023/01/25 08:19:43;;;;;;;7.45;4.50;;;;;;;;;;4399963;32;70510;-63
2023/01/25 08:22:30;;;;;;;7.20;4.55;;;;;;;;;;4398774;32;68953;-63
2023/01/25 08:25:17;;;;;;;6.28;4.22;;;;;;;;;;4400006;32;67590;-63
2023/01/25 08:28:04;;;;;;;;;;;;;;;;;;4377933;32;72164;-64
2023/01/25 08:30:50;;;;;;;8.93;5.10;;;;;;;;;;4398691;32;70339;-63
2023/01/25 08:33:37;;;;;;;6.95;4.25;;;;;;;;;;4387505;32;68860;-63
2023/01/25 08:36:24;;;;;;;6.82;4.28;;;;;;;;;;4398333;32;66350;-63
2023/01/25 08:39:12;;;;;;;7.35;4.20;;;;;;;;;;4366593;32;70582;-62
2023/01/25 08:41:59;;;;;;;6.30;4.50;;;;;;;;;;4388232;32;65117;-63
2023/01/25 08:44:46;;;;;;;7.68;4.53;;;;;;;;;;4366385;32;68718;-63
2023/01/25 08:47:33;;;;;;;;;;;;;;;;;;4399080;32;59402;-63
2023/01/25 08:50:20;;;;;;;7.32;3.87;;;;;;;;;;4387904;32;72059;-62
2023/01/25 08:53:06;;;;;;;9.15;3.72;;;;;;;;;;4388650;32;69761;-62
2023/01/25 08:55:54;;;;;;;7.47;4.45;;;;;;;;;;4389589;32;67017;-62
2023/01/25 08:58:43;;;;;;;7.22;4.22;;;;;;;;;;4391224;32;60689;-64
2023/01/25 09:01:30;;;;;;;6.05;4.07;;;;;;;;;;4389739;32;68513;-63
2023/01/25 09:04:16;;;;;;;5.03;3.08;;;;;;;;;;4378386;32;69063;-64
2023/01/25 09:07:03;;;;;;;;;;;;;;;;;;4388430;32;67590;-63
2023/01/25 09:09:49;;;;;;;4.80;3.22;;;;;;;;;;4398739;32;72058;-62
2023/01/25 09:12:36;;;;;;;6.70;4.22;;;;;;;;;;4366450;32;64853;-64
2023/01/25 09:15:23;;;;;;;7.80;3.65;;;;;;;;;;4387706;32;67944;-62
2023/01/25 09:18:10;;;;;;;5.65;3.45;;;;;;;;;;4399984;32;66888;-62
2023/01/25 09:20:58;;;;;;;7.25;3.95;;;;;;;;;;4365874;32;69468;-61
2023/01/25 09:23:48;;;;;;;5.90;3.85;;;;;;;;;;4376009;32;63864;-62
2023/01/25 09:26:38;;;;;;;5.70;3.40;;;;;;;;;;4387604;32;67770;-63
2023/01/25 09:29:25;;;;;;;5.70;3.20;;;;;;;;;;4387649;32;58918;-61
2023/01/25 09:32:11;;;;;;;6.57;3.87;;;;;;;;;;4399300;32;70410;-62
2023/01/25 09:34:59;;;;;;;5.85;3.70;;;;;;;;;;4377006;32;69465;-63
2023/01/25 09:37:51;;;;;;;5.22;3.12;;;;;;;;;;4387324;32;67728;-63
2023/01/25 09:40:39;;;;;;;6.20;3.92;;;;;;;;;;4376342;32;72809;-63
2023/01/25 09:43:43;;;;;;;4.90;3.45;;;;;;;;;;4398075;32;70660;-64
2023/01/25 09:46:30;;;;;;;6.12;3.33;;;;;;;;;;4397754;32;69094;-63
2023/01/25 09:49:37;;;;;;;6.90;3.85;;;;;;;;;;4397797;32;67460;-63
2023/01/25 09:52:49;;;;;;;5.32;2.80;;;;;;;;;;4386735;32;71166;-63
2023/01/25 09:55:36;;;;;;;5.70;3.33;;;;;;;;;;4397908;32;66157;-63
2023/01/25 09:58:31;;;;;;;6.12;3.35;;;;;;;;;;4399098;32;67737;-63
2023/01/25 10:01:34;;;;;;;5.62;3.55;;;;;;;;;;4386741;32;60655;-63
2023/01/25 10:04:31;;;;;;;7.60;3.53;;;;;;;;;;4386695;32;70557;-62
2023/01/25 10:07:58;;;;;;;5.78;3.67;;;;;;;;;;4397029;32;69520;-62
2023/01/25 10:10:47;;;;;;;6.10;3.60;;;;;;;;;;4359981;32;67045;-62
2023/01/25 10:13:34;;;;;;;7.05;3.72;;;;;;;;;;4386597;32;61040;-60
2023/01/25 10:16:25;;;;;;;5.80;3.35;;;;;;;;;;4376388;32;69177;-63
2023/01/25 10:19:39;;;;;;;7.10;3.92;;;;;;;;;;4388767;32;69962;-63
2023/01/25 10:22:34;;;;;;;5.45;3.53;;;;;;;;;;4399345;32;67882;-62
2023/01/25 10:26:00;;;;;;;5.72;3.60;;;;;;;;;;4376415;32;71630;-63
2023/01/25 10:28:51;;;;;;;5.55;3.53;;;;;;;;;;4375753;32;65188;-62
2023/01/25 10:31:54;;;;;;;6.85;3.45;;;;;;;;;;4398786;32;67012;-62
2023/01/25 10:34:50;;;;;;;6.35;3.70;;;;;;;;;;4375970;32;59121;-63
2023/01/25 10:37:36;;;;;;;6.87;4.10;;;;;;;;;;4397203;32;70847;-62
2023/01/25 10:40:27;;;;;;;6.90;3.37;;;;;;;;;;4375283;32;67093;-62
2023/01/25 10:43:19;;;;;;;7.45;4.12;;;;;;;;;;4397269;32;67977;-63
2023/01/25 10:46:32;;;;;;;7.93;4.37;;;;;;;;;;4386049;32;60105;-64
2023/01/25 10:49:23;;;;;;;6.22;3.45;;;;;;;;;;4386333;32;69759;-62
2023/01/25 10:52:30;;;;;;;7.45;3.30;;;;;;;;;;4385937;32;70479;-63
2023/01/25 10:55:30;;;;;;;5.90;3.35;;;;;;;;;;4386253;32;66580;-62
2023/01/25 10:58:31;;;;;;;6.35;3.90;;;;;;;;;;4387162;32;70854;-62
2023/01/25 11:01:30;;;;;;;7.43;3.90;;;;;;;;;;4386035;32;65977;-63
2023/01/25 11:04:26;;;;;;;7.03;3.83;;;;;;;;;;4396894;32;68464;-63
2023/01/25 11:07:30;;;;;;;4.85;3.17;;;;;;;;;;4386326;32;67969;-62
2023/01/25 11:10:35;;;;;;;4.65;3.05;;;;;;;;;;4386246;32;71665;-63
2023/01/25 11:13:28;;;;;;;5.85;3.72;;;;;;;;;;4386163;32;65779;-62
2023/01/25 11:16:19;;;;;;;5.18;3.35;;;;;;;;;;4375053;32;66850;-62
2023/01/25 11:19:26;;;;;;;5.85;3.20;;;;;;;;;;4386147;32;60278;-63
2023/01/25 11:22:20;;;;;;;;;;;;;;;;;;4385779;32;68390;-62
2023/01/25 11:25:24;;;;;;;6.12;3.58;;;;;;;;;;4366314;32;72230;-64
2023/01/25 11:28:20;;;;;;;5.00;3.35;;;;;;;;;;4366145;32;67466;-63
2023/01/25 11:31:20;;;;;;;6.20;3.58;;;;;;;;;;4345594;32;59372;-63
2023/01/25 11:34:13;;;;;;;5.95;3.78;;;;;;;;;;4355379;32;71283;-63
2023/01/25 11:37:17;;;;;;;6.12;3.75;;;;;;;;;;4334690;32;69732;-63
2023/01/25 11:40:14;;;;;;;5.12;3.17;;;;;;;;;;4365724;32;68871;-63
2023/01/25 11:44:08;;;;;;;4.60;3.28;;;;;;;;;;4365881;32;71768;-63
2023/01/25 11:46:55;;;;;;;5.78;3.70;;;;;;;;;;4301644;32;67383;-63
2023/01/25 11:49:56;;;;;;;7.57;3.80;;;;;;;;;;4324564;32;67798;-63
2023/01/25 11:52:49;;;;;;;5.43;3.30;;;;;;;;;;4364627;32;58794;-63
2023/01/25 11:55:55;;;;;;;5.97;3.35;;;;;;;;;;4367085;32;71895;-62
2023/01/25 11:59:04;;;;;;;4.80;3.20;;;;;;;;;;4365875;32;65768;-63
2023/01/25 12:02:20;;;;;;;5.62;2.87;;;;;;;;;;4367416;32;67933;-63
2023/01/25 12:05:45;;;;;;;6.03;3.50;;;;;;;;;;4355551;32;61194;-63
2023/01/25 12:08:54;;;;;;;4.57;3.05;;;;;;;;;;4348781;32;71035;-62
2023/01/25 12:11:56;;;;;;;5.55;3.22;;;;;;;;;;4344618;32;70071;-63
2023/01/25 12:15:09;;;;;;;6.47;3.67;;;;;;;;;;4355149;32;67970;-64
2023/01/25 12:18:36;;;;;;;6.28;3.42;;;;;;;;;;4365660;32;71011;-64
2023/01/25 12:21:31;;;;;;;5.80;3.60;;;;;;;;;;4354414;32;65811;-63
2023/01/25 12:24:31;;;;;;;4.43;3.10;;;;;;;;;;4385741;32;69606;-63
2023/01/25 12:27:36;;;;;;;6.05;3.05;;;;;;;;;;4395972;32;67598;-63
2023/01/25 12:30:31;;;;;;;5.72;3.70;;;;;;;;;;4384301;32;69671;-63
2023/01/25 12:33:37;;;;;;;5.05;3.15;;;;;;;;;;4398799;32;66193;-63
2023/01/25 12:36:45;;;;;;;5.93;3.35;;;;;;;;;;4398600;32;67550;-63
2023/01/25 12:39:40;;;;;;;5.55;3.83;;;;;;;;;;4366694;32;61033;-63
2023/01/25 12:42:49;;;;;;;5.37;3.40;;;;;;;;;;4387501;32;70176;-64
2023/01/25 12:45:38;;;;;;;7.00;3.60;;;;;;;;;;4377090;32;68843;-64
2023/01/25 12:48:36;;;;;;;5.68;3.40;;;;;;;;;;4398651;32;67695;-63
2023/01/25 12:51:24;;;;;;;6.70;4.10;;;;;;;;;;4387378;32;60851;-63
2023/01/25 12:54:24;;;;;;;5.43;3.60;;;;;;;;;;4387778;32;70387;-63
2023/01/25 12:57:24;;;;;;;7.35;4.07;;;;;;;;;;4387832;32;69136;-63
2023/01/25 13:00:44;;;;;;;5.10;3.35;;;;;;;;;;4399759;32;66818;-64
2023/01/25 13:03:34;;;;;;;5.75;3.78;;;;;;;;;;4386721;32;71498;-64
2023/01/25 13:06:43;;;;;;;8.05;4.03;;;;;;;;;;4387159;32;66600;-63
2023/01/25 13:09:48;;;;;;;7.12;4.07;;;;;;;;;;4397244;32;68310;-64
2023/01/25 13:12:54;;;;;;;7.00;4.22;;;;;;;;;;4397811;32;61012;-63
2023/01/25 13:15:42;;;;;;;6.40;4.32;;;;;;;;;;4397825;32;71152;-64
2023/01/25 13:18:32;;;;;;;8.02;4.72;;;;;;;;;;4398318;32;66218;-63
2023/01/25 13:21:44;;;;;;;5.65;3.60;;;;;;;;;;4398823;32;67888;-63
2023/01/25 13:24:31;;;;;;;6.57;3.83;;;;;;;;;;4389857;32;60511;-62
2023/01/25 13:27:27;;;;;;;7.10;4.50;;;;;;;;;;4390673;32;70882;-63
2023/01/25 13:30:36;;;;;;;6.93;4.35;;;;;;;;;;4404882;32;69457;-63
2023/01/25 13:33:34;;;;;;;7.30;4.40;;;;;;;;;;4403267;32;67592;-63
2023/01/25 13:36:41;;;;;;;6.22;3.67;;;;;;;;;;4389460;32;71822;-62
2023/01/25 13:39:27;;;;;;;7.18;4.35;;;;;;;;;;4401579;32;64975;-62
2023/01/25 13:42:28;;;;;;;7.80;4.65;;;;;;;;;;4402535;32;67109;-64
2023/01/25 13:45:20;;;;;;;7.62;4.40;;;;;;;;;;4377812;32;68566;-64
2023/01/25 13:48:09;;;;;;;7.80;4.28;;;;;;;;;;4387622;32;71861;-61
2023/01/25 13:51:03;;;;;;;8.10;4.85;;;;;;;;;;4387363;32;65855;-63
2023/01/25 13:53:57;;;;;;;8.20;4.53;;;;;;;;;;4399481;32;68159;-62
2023/01/25 13:56:44;;;;;;;9.05;5.10;;;;;;;;;;4387229;32;60658;-63
2023/01/25 13:59:31;;;;;;;;;;;;;;;;;;4388328;32;70583;-64
2023/01/25 14:02:22;;;;;;;7.00;3.67;;;;;;;;;;4386825;32;69744;-63
2023/01/25 14:05:36;;;;;;;6.70;3.75;;;;;;;;;;4397586;32;66920;-64
2023/01/25 14:08:24;;;;;;;6.87;3.78;;;;;;;;;;4397610;32;59108;-64
2023/01/25 14:11:16;;;;;;;7.40;4.25;;;;;;;;;;4376212;32;71256;-63
2023/01/25 14:14:16;;;;;;;7.85;4.50;;;;;;;;;;4386236;32;66552;-64
2023/01/25 14:17:04;;;;;;;5.87;3.42;;;;;;;;;;4375613;32;68268;-62
2023/01/25 14:19:54;;;;;;;6.85;3.72;;;;;;;;;;4386130;32;72440;-64
2023/01/25 14:22:47;;;;;;;6.95;3.97;;;;;;;;;;4397502;32;64887;-63
2023/01/25 14:25:34;;;;;;;6.15;3.90;;;;;;;;;;4375965;32;68057;-63
2023/01/25 14:28:21;;;;;;;8.82;4.90;;;;;;;;;;4397793;32;60387;-63
2023/01/25 14:31:19;;;;;;;9.20;4.57;;;;;;;;;;4398520;32;69486;-64
2023/01/25 14:34:13;;;;;;;10.20;4.60;;;;;;;;;;4376422;32;65887;-62
2023/01/25 14:37:16;;;;;;;8.80;5.05;;;;;;;;;;4388309;32;67284;-63
2023/01/25 14:40:11;;;;;;;8.82;4.57;;;;;;;;;;4388077;32;58823;-62
2023/01/25 14:42:58;;;;;;;7.53;4.62;;;;;;;;;;4397302;32;69824;-63
2023/01/25 14:45:44;;;;;;;;;;;;;;;;;;4397063;32;68927;-64
2023/01/25 14:48:40;;;;;;;9.43;5.40;;;;;;;;;;4386704;32;67478;-63
2023/01/25 14:51:30;;;;;;;10.98;5.15;;;;;;;;;;4374907;32;72633;-62
2023/01/25 14:54:19;;;;;;;8.48;5.07;;;;;;;;;;4396691;32;64490;-62
2023/01/25 14:57:07;;;;;;;7.50;5.10;;;;;;;;;;4396822;32;66419;-63
2023/01/25 14:59:54;;;;;;;7.10;4.45;;;;;;;;;;4375075;32;68159;-63
2023/01/25 15:02:48;;;;;;;7.68;4.97;;;;;;;;;;4364429;32;72137;-63
2023/01/25 15:05:36;;;;;;;8.45;4.43;;;;;;;;;;4398337;32;65072;-62
2023/01/25 15:08:37;;;;;;;8.02;4.72;;;;;;;;;;4375025;32;68534;-62
2023/01/25 15:11:44;;;;;;;8.27;4.47;;;;;;;;;;4397183;32;60187;-63
2023/01/25 15:14:32;;;;;;;7.22;4.43;;;;;;;;;;4387290;32;69493;-63
2023/01/25 15:17:39;;;;;;;8.23;4.57;;;;;;;;;;4386173;32;69503;-63
2023/01/25 15:20:29;;;;;;;8.18;5.00;;;;;;;;;;4385511;32;68524;-64
2023/01/25 15:23:24;;;;;;;10.68;4.93;;;;;;;;;;4396153;32;72737;-64
2023/01/25 15:26:14;;;;;;;9.73;4.93;;;;;;;;;;4375237;32;71217;-63
2023/01/25 15:29:04;;;;;;;6.68;4.40;;;;;;;;;;4385475;32;69937;-65
2023/01/25 15:31:51;;;;;;;9.63;5.20;;;;;;;;;;4386148;32;66805;-63
2023/01/25 15:34:37;;;;;;;6.87;4.05;;;;;;;;;;4396680;32;71931;-63
2023/01/25 15:37:24;;;;;;;11.52;4.80;;;;;;;;;;4396814;32;66151;-64
2023/01/25 15:40:09;;;;;;;7.43;3.67;;;;;;;;;;3847477;37;43475;-64
2023/01/25 15:42:58;;;;;;;6.85;3.95;;;;;;;;;;4411266;32;59104;-63
2023/01/25 15:45:46;;;;;;;6.35;3.85;;;;;;;;;;4398905;32;69572;-64
2023/01/25 15:48:36;;;;;;;8.15;4.05;;;;;;;;;;4387956;32;69032;-64
2023/01/25 15:51:23;;;;;;;7.90;4.57;;;;;;;;;;4398795;32;67594;-63
2023/01/25 15:54:10;;;;;;;7.47;3.83;;;;;;;;;;4410715;32;70674;-63
2023/01/25 15:56:58;;;;;;;6.30;3.53;;;;;;;;;;4409253;32;66844;-63
2023/01/25 15:59:45;;;;;;;7.85;3.92;;;;;;;;;;4388055;32;68256;-63
2023/01/25 16:02:32;;;;;;;6.78;3.87;;;;;;;;;;4411087;32;59147;-63
2023/01/25 16:05:19;;;;;;;5.97;4.15;;;;;;;;;;4409648;32;70837;-62
2023/01/25 16:08:05;;;;;;;6.32;4.30;;;;;;;;;;4398056;32;66851;-65
2023/01/25 16:10:52;;;;;;;5.80;3.78;;;;;;;;;;4409546;32;67785;-63
2023/01/25 16:13:40;;;;;;;6.05;4.05;;;;;;;;;;4398287;32;59974;-63
2023/01/25 16:16:27;;;;;;;8.32;4.68;;;;;;;;;;4410787;32;70492;-63
2023/01/25 16:19:18;;;;;;;6.47;4.15;;;;;;;;;;4387117;32;69711;-63
2023/01/25 16:22:05;;;;;;;6.07;4.00;;;;;;;;;;4398062;32;68395;-63
2023/01/25 16:24:51;;;;;;;5.97;3.90;;;;;;;;;;4398850;32;71636;-63
2023/01/25 16:27:38;;;;;;;7.90;4.40;;;;;;;;;;4409100;32;66769;-65
2023/01/25 16:30:26;;;;;;;7.47;4.35;;;;;;;;;;4398042;32;69719;-63
2023/01/25 16:33:13;;;;;;;8.18;4.10;;;;;;;;;;4409192;32;67582;-63
2023/01/25 16:36:22;;;;;;;7.90;4.28;;;;;;;;;;4397803;32;72593;-63
2023/01/25 16:39:18;;;;;;;7.18;4.05;;;;;;;;;;4387090;32;66727;-62
2023/01/25 16:42:05;;;;;;;7.07;4.22;;;;;;;;;;4409258;32;67338;-63
2023/01/25 16:44:52;;;;;;;7.30;4.05;;;;;;;;;;4387133;32;60457;-63
2023/01/25 16:47:38;;;;;;;9.27;4.70;;;;;;;;;;4409051;32;70472;-63
2023/01/25 16:50:25;;;;;;;;;;;;;;;;;;4403641;32;69112;-63
2023/01/25 16:53:11;;;;;;;7.78;3.70;;;;;;;;;;4387978;32;68282;-62
2023/01/25 16:56:01;;;;;;;6.65;3.95;;;;;;;;;;4400547;32;60217;-63
2023/01/25 16:58:49;;;;;;;7.12;3.55;;;;;;;;;;4398803;32;70547;-64
2023/01/25 17:01:40;;;;;;;6.70;3.97;;;;;;;;;;4387618;32;70432;-63
2023/01/25 17:04:26;;;;;;;5.43;3.62;;;;;;;;;;4377702;32;67529;-63
2023/01/25 17:07:13;;;;;;;;;;;;;;;;;;4398807;32;70905;-63
2023/01/25 17:09:59;;;;;;;6.68;4.07;;;;;;;;;;4399000;32;65164;-63
2023/01/25 17:12:47;;;;;;;6.12;3.70;;;;;;;;;;4388031;32;66511;-62
2023/01/25 17:15:33;;;;;;;6.72;4.07;;;;;;;;;;4398700;32;60044;-63